Mustafa Dayi — TCZF2 — position and weather

sailwx.info

Track history (hours):
 
Tides and Currents Weather Stations Pressure Air Temp Water Temp Dewpoint Dewpoint Depression Visibility Wind Speed Wind Dir Waves Ship Positions

Mustafa Dayi

Last reported at 2014-Aug-27 10:33 UTC. Time now 2014-Aug-27 11:11 UTC.
Position N 35°38' W 024°55'.

Length 183 m; draft 9.8 m.

Type: Ship. MMSI: 271042433.

Date/timePositionNaut miles runAvg speedWind from/ knotsBaromVisibWave heightAir tempDewpointWater temp
2014-Aug-27 10:33N 35°38' W 024°55'1514.6
2014-Aug-27 09:33N 35°37' W 025°13'1514.5
2014-Aug-27 08:33N 35°36' W 025°31'1414.0
2014-Aug-27 07:34N 35°35' W 025°48'1413.8
2014-Aug-27 06:33N 35°34' W 026°05'1414.0
2014-Aug-27 05:33N 35°33' W 026°22'1714.2
2014-Aug-27 04:20N 35°32' W 026°43'1314.1
2014-Aug-27 03:25N 35°31' W 026°59'1414.2
2014-Aug-27 02:27N 35°30' W 027°16'1414.8
2014-Aug-27 01:32N 35°28' W 027°33'1414.7
2014-Aug-27 00:33N 35°27' W 027°50'2914.5
2014-Aug-26 22:31N 35°26' W 028°26'1414.4
2014-Aug-26 21:31N 35°26' W 028°44'  
2014-Aug-18 23:27N 32°07' W 081°07'1 0.9
2014-Aug-18 22:15N 32°08' W 081°08'0 0.0
2014-Aug-18 20:33N 32°08' W 081°08'0 0.0
2014-Aug-18 19:17N 32°08' W 081°08'0 0.0
2014-Aug-18 18:29N 32°08' W 081°08'0 0.0
2014-Aug-18 17:25N 32°08' W 081°08'0 0.0
2014-Aug-18 14:33N 32°08' W 081°08'0 0.0
2014-Aug-18 13:30N 32°08' W 081°08'0 0.0
2014-Aug-18 12:32N 32°08' W 081°08'0 0.0
2014-Aug-18 11:22N 32°08' W 081°08'0 0.1
2014-Aug-18 10:33N 32°08' W 081°08'5 4.4
2014-Aug-18 09:32N 32°05' W 081°04'69 9.9
2014-Aug-18 02:33N 32°10' W 079°42'1414.5
2014-Aug-18 01:33N 32°14' W 079°26'1414.3
2014-Aug-18 00:33N 32°18' W 079°10'14314.3
2014-Aug-17 14:34N 33°43' W 076°52'3415.3
2014-Aug-17 12:21N 34°06' W 076°22'  
Track history (hours):
 
Tides and Currents Weather Stations Pressure Air Temp Water Temp Dewpoint Dewpoint Depression Visibility Wind Speed Wind Dir Waves Ship Positions

Mustafa Dayi

Last reported at 2014-Aug-27 10:33 UTC. Time now 2014-Aug-27 11:11 UTC.
Position N 35°38' W 024°55'.

Length 183 m; draft 9.8 m.

Type: Ship. MMSI: 271042433.

Date/timePositionNaut miles runAvg speedWind from/ knotsBaromVisibWave heightAir tempDewpointWater temp
2014-Aug-27 10:33N 35°38' W 024°55'1514.6
2014-Aug-27 09:33N 35°37' W 025°13'1514.5
2014-Aug-27 08:33N 35°36' W 025°31'1414.0
2014-Aug-27 07:34N 35°35' W 025°48'1413.8
2014-Aug-27 06:33N 35°34' W 026°05'1414.0
2014-Aug-27 05:33N 35°33' W 026°22'1714.2
2014-Aug-27 04:20N 35°32' W 026°43'1314.1
2014-Aug-27 03:25N 35°31' W 026°59'1414.2
2014-Aug-27 02:27N 35°30' W 027°16'1414.8
2014-Aug-27 01:32N 35°28' W 027°33'1414.7
2014-Aug-27 00:33N 35°27' W 027°50'2914.5
2014-Aug-26 22:31N 35°26' W 028°26'1414.4
2014-Aug-26 21:31N 35°26' W 028°44'  
2014-Aug-18 23:27N 32°07' W 081°07'1 0.9
2014-Aug-18 22:15N 32°08' W 081°08'0 0.0
2014-Aug-18 20:33N 32°08' W 081°08'0 0.0
2014-Aug-18 19:17N 32°08' W 081°08'0 0.0
2014-Aug-18 18:29N 32°08' W 081°08'0 0.0
2014-Aug-18 17:25N 32°08' W 081°08'0 0.0
2014-Aug-18 14:33N 32°08' W 081°08'0 0.0
2014-Aug-18 13:30N 32°08' W 081°08'0 0.0
2014-Aug-18 12:32N 32°08' W 081°08'0 0.0
2014-Aug-18 11:22N 32°08' W 081°08'0 0.1
2014-Aug-18 10:33N 32°08' W 081°08'5 4.4
2014-Aug-18 09:32N 32°05' W 081°04'69 9.9
2014-Aug-18 02:33N 32°10' W 079°42'1414.5
2014-Aug-18 01:33N 32°14' W 079°26'1414.3
2014-Aug-18 00:33N 32°18' W 079°10'14314.3
2014-Aug-17 14:34N 33°43' W 076°52'3415.3
2014-Aug-17 12:21N 34°06' W 076°22'  

Dump ship's entire track history